TOM6PB EGCC-LEMG
Flight info
| Callsign | TOM6PB |
|---|---|
| Flight time | 2h 33m |
| Altitude | 37000 |
| Route | ASMIM DCT NOKIN P17 BEPHE DCT OSSEP DCT ELNIF DCT ZESPE DCT DAWLY DCT BHD DCT SALCO DCT NOVAN DCT DELOG DCT CRISA N864 VULPE |
| Aircraft | B738/M-SDE2E3FGHIRWXY/LB1 |
Departure
| Time | 2026-05-06 12:39 |
|---|---|
| Airport | Manchester Airport (EGCC) |
Arrival
| Time | 2026-05-06 15:12 |
|---|---|
| Airport | Málaga-Costa del Sol Airport (LEMG) |
| Time | Latitude | Longitude | Altitude | Speed | Heading |
|---|---|---|---|---|---|
| 2026-05-06 12:23 | 53.36553 | -2.27936 | 254 ft | 0 kts | 45° |
| 2026-05-06 12:27 | 53.36551 | -2.27941 | 254 ft | 3 kts | 45° |
| 2026-05-06 12:28 | 53.36536 | -2.27965 | 254 ft | 3 kts | 45° |
| 2026-05-06 12:28 | 53.36522 | -2.27988 | 254 ft | 3 kts | 45° |
| 2026-05-06 12:28 | 53.36511 | -2.28008 | 254 ft | 3 kts | 66° |
| 2026-05-06 12:28 | 53.36509 | -2.28031 | 254 ft | 3 kts | 126° |
| 2026-05-06 12:29 | 53.36521 | -2.28054 | 254 ft | 2 kts | 135° |
| 2026-05-06 12:29 | 53.36511 | -2.28037 | 254 ft | 2 kts | 135° |
| 2026-05-06 12:29 | 53.36510 | -2.28036 | 254 ft | 0 kts | 135° |
| 2026-05-06 12:32 | 53.36504 | -2.28027 | 254 ft | 3 kts | 141° |
| 2026-05-06 12:32 | 53.36473 | -2.27994 | 254 ft | 7 kts | 146° |
| 2026-05-06 12:33 | 53.36448 | -2.27960 | 254 ft | 7 kts | 138° |
| 2026-05-06 12:33 | 53.36375 | -2.27964 | 254 ft | 12 kts | 219° |
| 2026-05-06 12:33 | 53.36306 | -2.28052 | 254 ft | 13 kts | 201° |
| 2026-05-06 12:33 | 53.36229 | -2.28116 | 254 ft | 12 kts | 212° |
| 2026-05-06 12:34 | 53.36153 | -2.28143 | 254 ft | 12 kts | 146° |
| 2026-05-06 12:34 | 53.36093 | -2.28050 | 254 ft | 12 kts | 137° |
| 2026-05-06 12:34 | 53.36052 | -2.27991 | 254 ft | 12 kts | 139° |
| 2026-05-06 12:34 | 53.35986 | -2.27895 | 254 ft | 14 kts | 141° |
| 2026-05-06 12:35 | 53.35892 | -2.27851 | 254 ft | 14 kts | 182° |
| 2026-05-06 12:35 | 53.35777 | -2.27870 | 248 ft | 20 kts | 185° |
| 2026-05-06 12:35 | 53.35613 | -2.27932 | 239 ft | 17 kts | 221° |
| 2026-05-06 12:35 | 53.35531 | -2.28083 | 233 ft | 18 kts | 219° |
| 2026-05-06 12:36 | 53.35455 | -2.28148 | 234 ft | 18 kts | 196° |
| 2026-05-06 12:36 | 53.35336 | -2.28192 | 232 ft | 18 kts | 201° |
| 2026-05-06 12:36 | 53.35234 | -2.28302 | 231 ft | 17 kts | 225° |
| 2026-05-06 12:36 | 53.35153 | -2.28463 | 227 ft | 19 kts | 231° |
| 2026-05-06 12:37 | 53.35070 | -2.28634 | 228 ft | 19 kts | 231° |
| 2026-05-06 12:37 | 53.34972 | -2.28815 | 225 ft | 23 kts | 226° |
| 2026-05-06 12:37 | 53.34813 | -2.29100 | 217 ft | 28 kts | 229° |
| 2026-05-06 12:37 | 53.34711 | -2.29298 | 214 ft | 9 kts | 219° |
| 2026-05-06 12:38 | 53.34672 | -2.29332 | 210 ft | 10 kts | 199° |
| 2026-05-06 12:38 | 53.34578 | -2.29325 | 214 ft | 18 kts | 157° |
| 2026-05-06 12:38 | 53.34593 | -2.29110 | 214 ft | 29 kts | 50° |
| 2026-05-06 12:38 | 53.34892 | -2.28490 | 230 ft | 112 kts | 51° |
| 2026-05-06 12:39 | 53.35532 | -2.27173 | 477 ft | 167 kts | 51° |
| 2026-05-06 12:39 | 53.36322 | -2.25588 | 1419 ft | 188 kts | 44° |
| 2026-05-06 12:39 | 53.37522 | -2.24626 | 2425 ft | 204 kts | 8° |
| 2026-05-06 12:39 | 53.38984 | -2.25033 | 3231 ft | 229 kts | 338° |
| 2026-05-06 12:40 | 53.40312 | -2.26773 | 3811 ft | 259 kts | 305° |
| 2026-05-06 12:40 | 53.40752 | -2.29618 | 5022 ft | 253 kts | 267° |
| 2026-05-06 12:40 | 53.40362 | -2.32474 | 5747 ft | 259 kts | 257° |
| 2026-05-06 12:40 | 53.40050 | -2.35516 | 6300 ft | 269 kts | 269° |
| 2026-05-06 12:41 | 53.40049 | -2.38654 | 7091 ft | 269 kts | 277° |
| 2026-05-06 12:41 | 53.40277 | -2.41770 | 7872 ft | 271 kts | 282° |
| 2026-05-06 12:41 | 53.40666 | -2.44871 | 8622 ft | 274 kts | 286° |
| 2026-05-06 12:41 | 53.41170 | -2.47958 | 9398 ft | 276 kts | 288° |
| 2026-05-06 12:42 | 53.41751 | -2.51061 | 10077 ft | 281 kts | 289° |
| 2026-05-06 12:42 | 53.42377 | -2.54236 | 10458 ft | 298 kts | 289° |
| 2026-05-06 12:42 | 53.43052 | -2.57658 | 10644 ft | 319 kts | 286° |
| 2026-05-06 12:42 | 53.43198 | -2.61372 | 11098 ft | 332 kts | 261° |
| 2026-05-06 12:43 | 53.42363 | -2.64990 | 11807 ft | 338 kts | 237° |
| 2026-05-06 12:43 | 53.40666 | -2.67725 | 12586 ft | 345 kts | 212° |
| 2026-05-06 12:43 | 53.38463 | -2.69368 | 13350 ft | 349 kts | 203° |
| 2026-05-06 12:43 | 53.36166 | -2.70787 | 14034 ft | 354 kts | 202° |
| 2026-05-06 12:44 | 53.33834 | -2.72180 | 14705 ft | 357 kts | 202° |
| 2026-05-06 12:44 | 53.31487 | -2.73587 | 15416 ft | 360 kts | 202° |
| 2026-05-06 12:44 | 53.29125 | -2.75021 | 16120 ft | 363 kts | 202° |
| 2026-05-06 12:44 | 53.26748 | -2.76483 | 16819 ft | 366 kts | 202° |
| 2026-05-06 12:45 | 53.24354 | -2.77966 | 17509 ft | 369 kts | 203° |
| 2026-05-06 12:45 | 53.21971 | -2.79447 | 18185 ft | 372 kts | 203° |
| 2026-05-06 12:45 | 53.17076 | -2.82492 | 19366 ft | 378 kts | 203° |
| 2026-05-06 12:46 | 53.14602 | -2.84028 | 19955 ft | 381 kts | 203° |
| 2026-05-06 12:46 | 53.12107 | -2.85574 | 20540 ft | 384 kts | 203° |
| 2026-05-06 12:46 | 53.09558 | -2.86997 | 21103 ft | 389 kts | 196° |
| 2026-05-06 12:46 | 53.06861 | -2.87649 | 21662 ft | 395 kts | 185° |
| 2026-05-06 12:47 | 53.04096 | -2.87483 | 22221 ft | 401 kts | 174° |
| 2026-05-06 12:47 | 53.01369 | -2.86769 | 22772 ft | 404 kts | 172° |
| 2026-05-06 12:47 | 52.98589 | -2.85963 | 23288 ft | 407 kts | 172° |
| 2026-05-06 12:47 | 52.95785 | -2.85146 | 23761 ft | 411 kts | 172° |
| 2026-05-06 12:48 | 52.92960 | -2.84347 | 24208 ft | 413 kts | 173° |
| 2026-05-06 12:48 | 52.90122 | -2.83566 | 24663 ft | 414 kts | 173° |
| 2026-05-06 12:48 | 52.87269 | -2.82796 | 25120 ft | 416 kts | 173° |
| 2026-05-06 12:48 | 52.84405 | -2.82030 | 25571 ft | 418 kts | 173° |
| 2026-05-06 12:49 | 52.81522 | -2.81261 | 25989 ft | 420 kts | 173° |
| 2026-05-06 12:49 | 52.78631 | -2.80486 | 26386 ft | 423 kts | 173° |
| 2026-05-06 12:49 | 52.75721 | -2.79688 | 26801 ft | 425 kts | 173° |
| 2026-05-06 12:49 | 52.72839 | -2.78892 | 27211 ft | 427 kts | 173° |
| 2026-05-06 12:50 | 52.69905 | -2.78086 | 27614 ft | 429 kts | 173° |
| 2026-05-06 12:50 | 52.66956 | -2.77303 | 27999 ft | 430 kts | 174° |
| 2026-05-06 12:50 | 52.63989 | -2.76528 | 28371 ft | 433 kts | 174° |
| 2026-05-06 12:50 | 52.61007 | -2.75861 | 28729 ft | 433 kts | 179° |
| 2026-05-06 12:51 | 52.58001 | -2.75910 | 29078 ft | 432 kts | 187° |
| 2026-05-06 12:51 | 52.54996 | -2.76277 | 29450 ft | 433 kts | 187° |
| 2026-05-06 12:51 | 52.51984 | -2.76604 | 29793 ft | 436 kts | 186° |
| 2026-05-06 12:51 | 52.48987 | -2.76884 | 30098 ft | 438 kts | 186° |
| 2026-05-06 12:52 | 52.45936 | -2.77150 | 30354 ft | 441 kts | 186° |
| 2026-05-06 12:52 | 52.42867 | -2.77410 | 30606 ft | 443 kts | 186° |
| 2026-05-06 12:52 | 52.39791 | -2.77670 | 30956 ft | 442 kts | 186° |
| 2026-05-06 12:52 | 52.36722 | -2.77929 | 31381 ft | 440 kts | 186° |
| 2026-05-06 12:53 | 52.33672 | -2.78188 | 31793 ft | 439 kts | 186° |
| 2026-05-06 12:53 | 52.30627 | -2.78449 | 32144 ft | 438 kts | 186° |
| 2026-05-06 12:53 | 52.27580 | -2.78711 | 32488 ft | 438 kts | 186° |
| 2026-05-06 12:53 | 52.24580 | -2.78969 | 32826 ft | 437 kts | 186° |
| 2026-05-06 12:54 | 52.21538 | -2.79230 | 33150 ft | 438 kts | 186° |
| 2026-05-06 12:54 | 52.18499 | -2.79491 | 33486 ft | 437 kts | 186° |
| 2026-05-06 12:54 | 52.15463 | -2.79750 | 33857 ft | 436 kts | 186° |
| 2026-05-06 12:54 | 52.12439 | -2.80008 | 34185 ft | 435 kts | 186° |
| 2026-05-06 12:55 | 52.09415 | -2.80266 | 34414 ft | 436 kts | 186° |
| 2026-05-06 12:55 | 52.06384 | -2.80524 | 34625 ft | 437 kts | 186° |
| 2026-05-06 12:55 | 52.03344 | -2.80784 | 34871 ft | 437 kts | 186° |
| 2026-05-06 12:55 | 52.00307 | -2.81042 | 35122 ft | 437 kts | 185° |
| 2026-05-06 12:56 | 51.97311 | -2.81297 | 35352 ft | 438 kts | 185° |
| 2026-05-06 12:56 | 51.94267 | -2.81556 | 35568 ft | 438 kts | 185° |
| 2026-05-06 12:56 | 51.91220 | -2.81815 | 35827 ft | 438 kts | 185° |
| 2026-05-06 12:56 | 51.88175 | -2.82073 | 36073 ft | 438 kts | 185° |
| 2026-05-06 12:57 | 51.85130 | -2.82352 | 36298 ft | 438 kts | 187° |
| 2026-05-06 12:57 | 51.82098 | -2.82896 | 36521 ft | 438 kts | 189° |
| 2026-05-06 12:57 | 51.79082 | -2.83555 | 36747 ft | 438 kts | 190° |
| 2026-05-06 12:57 | 51.76066 | -2.84242 | 36962 ft | 438 kts | 190° |
| 2026-05-06 12:58 | 51.73082 | -2.84915 | 37049 ft | 441 kts | 190° |
| 2026-05-06 12:58 | 51.66967 | -2.86241 | 37052 ft | 444 kts | 189° |
| 2026-05-06 12:59 | 51.60880 | -2.87523 | 37031 ft | 437 kts | 189° |
| 2026-05-06 12:59 | 51.54889 | -2.88960 | 37019 ft | 434 kts | 196° |
| 2026-05-06 13:00 | 51.49274 | -2.92155 | 37031 ft | 431 kts | 203° |
| 2026-05-06 13:00 | 51.43682 | -2.95613 | 37028 ft | 431 kts | 203° |
| 2026-05-06 13:01 | 51.38062 | -2.99034 | 37026 ft | 433 kts | 202° |
| 2026-05-06 13:01 | 51.32412 | -3.02422 | 37022 ft | 434 kts | 202° |
| 2026-05-06 13:02 | 51.26740 | -3.05800 | 37009 ft | 436 kts | 202° |
| 2026-05-06 13:02 | 51.21089 | -3.09155 | 37019 ft | 437 kts | 202° |
| 2026-05-06 13:03 | 51.15377 | -3.12539 | 37017 ft | 438 kts | 202° |
| 2026-05-06 13:03 | 51.09656 | -3.15919 | 37014 ft | 439 kts | 202° |
| 2026-05-06 13:04 | 51.03921 | -3.19300 | 37011 ft | 440 kts | 202° |
| 2026-05-06 13:04 | 50.98221 | -3.22651 | 37016 ft | 439 kts | 202° |
| 2026-05-06 13:05 | 50.92492 | -3.26010 | 37016 ft | 439 kts | 202° |
| 2026-05-06 13:05 | 50.86768 | -3.29357 | 37016 ft | 438 kts | 202° |
| 2026-05-06 13:06 | 50.81051 | -3.32692 | 37013 ft | 438 kts | 202° |
| 2026-05-06 13:06 | 50.75337 | -3.36017 | 37022 ft | 437 kts | 202° |
| 2026-05-06 13:07 | 50.69676 | -3.39302 | 37022 ft | 436 kts | 202° |
| 2026-05-06 13:07 | 50.63975 | -3.42604 | 37025 ft | 436 kts | 202° |
| 2026-05-06 13:08 | 50.58266 | -3.45859 | 36992 ft | 437 kts | 198° |
| 2026-05-06 13:08 | 50.52270 | -3.47427 | 37016 ft | 439 kts | 187° |
| 2026-05-06 13:09 | 50.46232 | -3.48323 | 37002 ft | 439 kts | 187° |
| 2026-05-06 13:09 | 50.40164 | -3.49342 | 37005 ft | 439 kts | 187° |
| 2026-05-06 13:10 | 50.34058 | -3.49884 | 37005 ft | 440 kts | 184° |
| 2026-05-06 13:10 | 50.27939 | -3.50132 | 37009 ft | 440 kts | 183° |
| 2026-05-06 13:11 | 50.21845 | -3.50403 | 37008 ft | 441 kts | 184° |
| 2026-05-06 13:11 | 50.15706 | -3.50723 | 37005 ft | 442 kts | 184° |
| 2026-05-06 13:12 | 50.09558 | -3.51060 | 37000 ft | 442 kts | 184° |
| 2026-05-06 13:12 | 50.03403 | -3.51397 | 37006 ft | 443 kts | 184° |
| 2026-05-06 13:13 | 49.97283 | -3.51728 | 37000 ft | 443 kts | 184° |
| 2026-05-06 13:13 | 49.91121 | -3.52060 | 36989 ft | 442 kts | 183° |
| 2026-05-06 13:14 | 49.84981 | -3.52391 | 36994 ft | 441 kts | 183° |
| 2026-05-06 13:14 | 49.78854 | -3.52722 | 36996 ft | 440 kts | 183° |
| 2026-05-06 13:15 | 49.72771 | -3.53051 | 36990 ft | 440 kts | 184° |
| 2026-05-06 13:15 | 49.66650 | -3.53375 | 36984 ft | 440 kts | 183° |
| 2026-05-06 13:16 | 49.60525 | -3.53696 | 36999 ft | 442 kts | 183° |
| 2026-05-06 13:16 | 49.54343 | -3.54021 | 36993 ft | 446 kts | 183° |
| 2026-05-06 13:17 | 49.48195 | -3.54342 | 36981 ft | 444 kts | 183° |
| 2026-05-06 13:17 | 49.42042 | -3.54663 | 36980 ft | 441 kts | 183° |
| 2026-05-06 13:18 | 49.35921 | -3.54982 | 36985 ft | 439 kts | 183° |
| 2026-05-06 13:18 | 49.29818 | -3.55300 | 36987 ft | 439 kts | 183° |
| 2026-05-06 13:19 | 49.23683 | -3.55620 | 36991 ft | 445 kts | 183° |
| 2026-05-06 13:19 | 49.17507 | -3.55940 | 36991 ft | 449 kts | 183° |
| 2026-05-06 13:20 | 49.11248 | -3.56263 | 36986 ft | 451 kts | 183° |
| 2026-05-06 13:20 | 49.04968 | -3.56586 | 37001 ft | 452 kts | 183° |
| 2026-05-06 13:21 | 48.98728 | -3.56905 | 36969 ft | 443 kts | 183° |
| 2026-05-06 13:21 | 48.92624 | -3.57218 | 36985 ft | 442 kts | 183° |
| 2026-05-06 13:22 | 48.86476 | -3.57533 | 36998 ft | 443 kts | 183° |
| 2026-05-06 13:22 | 48.80286 | -3.57850 | 37002 ft | 447 kts | 183° |
| 2026-05-06 13:23 | 48.74119 | -3.58164 | 36985 ft | 445 kts | 183° |
| 2026-05-06 13:23 | 48.67962 | -3.58475 | 36988 ft | 441 kts | 183° |
| 2026-05-06 13:24 | 48.61855 | -3.58784 | 36991 ft | 439 kts | 183° |
| 2026-05-06 13:24 | 48.55704 | -3.59096 | 36996 ft | 444 kts | 183° |
| 2026-05-06 13:25 | 48.49537 | -3.59407 | 36983 ft | 448 kts | 183° |
| 2026-05-06 13:25 | 48.43286 | -3.59721 | 36985 ft | 450 kts | 183° |
| 2026-05-06 13:26 | 48.37080 | -3.60031 | 36958 ft | 442 kts | 183° |
| 2026-05-06 13:26 | 48.30956 | -3.60336 | 36973 ft | 440 kts | 183° |
| 2026-05-06 13:27 | 48.24829 | -3.60643 | 36961 ft | 441 kts | 183° |
| 2026-05-06 13:27 | 48.18727 | -3.60948 | 36980 ft | 443 kts | 183° |
| 2026-05-06 13:28 | 48.12550 | -3.61255 | 36970 ft | 445 kts | 183° |
| 2026-05-06 13:28 | 48.06353 | -3.61562 | 36982 ft | 446 kts | 183° |
| 2026-05-06 13:29 | 48.00168 | -3.61868 | 36970 ft | 449 kts | 183° |
| 2026-05-06 13:29 | 47.93916 | -3.62176 | 36947 ft | 450 kts | 183° |
| 2026-05-06 13:30 | 47.87668 | -3.62482 | 36956 ft | 448 kts | 183° |
| 2026-05-06 13:30 | 47.81448 | -3.62787 | 36955 ft | 446 kts | 183° |
| 2026-05-06 13:31 | 47.75263 | -3.63090 | 36962 ft | 444 kts | 183° |
| 2026-05-06 13:31 | 47.69152 | -3.63388 | 36962 ft | 442 kts | 183° |
| 2026-05-06 13:32 | 47.63006 | -3.63688 | 36963 ft | 441 kts | 183° |
| 2026-05-06 13:32 | 47.56879 | -3.63986 | 36967 ft | 440 kts | 183° |
| 2026-05-06 13:33 | 47.50751 | -3.64283 | 36962 ft | 440 kts | 183° |
| 2026-05-06 13:33 | 47.44625 | -3.64580 | 36981 ft | 441 kts | 183° |
| 2026-05-06 13:34 | 47.38524 | -3.64875 | 36985 ft | 442 kts | 183° |
| 2026-05-06 13:34 | 47.32357 | -3.65172 | 36980 ft | 444 kts | 183° |
| 2026-05-06 13:35 | 47.26173 | -3.65469 | 36986 ft | 446 kts | 183° |
| 2026-05-06 13:35 | 47.19961 | -3.65767 | 36996 ft | 447 kts | 183° |
| 2026-05-06 13:36 | 47.13768 | -3.66063 | 36990 ft | 449 kts | 183° |
| 2026-05-06 13:36 | 47.07522 | -3.66361 | 36996 ft | 450 kts | 183° |
| 2026-05-06 13:37 | 47.01261 | -3.66658 | 36996 ft | 450 kts | 183° |
| 2026-05-06 13:37 | 46.95043 | -3.66954 | 36996 ft | 450 kts | 183° |
| 2026-05-06 13:38 | 46.88780 | -3.67250 | 36992 ft | 450 kts | 183° |
| 2026-05-06 13:38 | 46.82531 | -3.67545 | 36989 ft | 449 kts | 183° |
| 2026-05-06 13:39 | 46.76289 | -3.67840 | 36994 ft | 448 kts | 183° |
| 2026-05-06 13:39 | 46.70100 | -3.68131 | 36997 ft | 448 kts | 184° |
| 2026-05-06 13:40 | 46.63884 | -3.68423 | 36999 ft | 447 kts | 183° |
| 2026-05-06 13:40 | 46.57670 | -3.68714 | 36995 ft | 446 kts | 183° |
| 2026-05-06 13:41 | 46.51466 | -3.69004 | 36995 ft | 446 kts | 183° |
| 2026-05-06 13:41 | 46.45268 | -3.69293 | 36999 ft | 445 kts | 183° |
| 2026-05-06 13:42 | 46.39113 | -3.69579 | 36999 ft | 445 kts | 183° |
| 2026-05-06 13:42 | 46.32921 | -3.69867 | 37003 ft | 445 kts | 184° |
| 2026-05-06 13:43 | 46.26748 | -3.70567 | 37002 ft | 445 kts | 188° |
| 2026-05-06 13:43 | 46.20601 | -3.71553 | 37003 ft | 445 kts | 188° |
| 2026-05-06 13:44 | 46.14481 | -3.72530 | 37008 ft | 445 kts | 188° |
| 2026-05-06 13:44 | 46.08312 | -3.73473 | 37006 ft | 446 kts | 188° |
| 2026-05-06 13:45 | 46.02137 | -3.74394 | 37008 ft | 447 kts | 187° |
| 2026-05-06 13:45 | 45.92897 | -3.75762 | 37009 ft | 447 kts | 187° |
| 2026-05-06 13:46 | 45.86710 | -3.76677 | 37004 ft | 447 kts | 188° |
| 2026-05-06 13:46 | 45.80522 | -3.77590 | 37009 ft | 447 kts | 187° |
| 2026-05-06 13:47 | 45.74335 | -3.78502 | 37010 ft | 447 kts | 188° |
| 2026-05-06 13:47 | 45.68158 | -3.79409 | 37010 ft | 446 kts | 188° |
| 2026-05-06 13:48 | 45.62027 | -3.80308 | 37010 ft | 446 kts | 188° |
| 2026-05-06 13:48 | 45.55861 | -3.81211 | 37013 ft | 445 kts | 188° |
| 2026-05-06 13:49 | 45.49708 | -3.82109 | 37015 ft | 444 kts | 188° |
| 2026-05-06 13:49 | 45.43561 | -3.83004 | 37018 ft | 444 kts | 188° |
| 2026-05-06 13:50 | 45.37465 | -3.83890 | 37016 ft | 443 kts | 188° |
| 2026-05-06 13:50 | 45.31329 | -3.84781 | 37013 ft | 444 kts | 188° |
| 2026-05-06 13:51 | 45.25180 | -3.85671 | 37017 ft | 444 kts | 188° |
| 2026-05-06 13:51 | 45.19027 | -3.86559 | 37008 ft | 445 kts | 188° |
| 2026-05-06 13:52 | 45.12914 | -3.87440 | 37026 ft | 445 kts | 188° |
| 2026-05-06 13:52 | 45.06756 | -3.88326 | 37024 ft | 445 kts | 188° |
| 2026-05-06 13:53 | 45.00592 | -3.89210 | 37016 ft | 445 kts | 188° |
| 2026-05-06 13:53 | 44.94431 | -3.90092 | 37016 ft | 445 kts | 188° |
| 2026-05-06 13:54 | 44.88306 | -3.90967 | 37021 ft | 445 kts | 188° |
| 2026-05-06 13:54 | 44.82150 | -3.91844 | 37018 ft | 445 kts | 188° |
| 2026-05-06 13:55 | 44.76000 | -3.92719 | 37018 ft | 444 kts | 188° |
| 2026-05-06 13:55 | 44.69866 | -3.93590 | 37015 ft | 442 kts | 188° |
| 2026-05-06 13:56 | 44.63749 | -3.94456 | 37017 ft | 441 kts | 188° |
| 2026-05-06 13:56 | 44.57686 | -3.95314 | 37018 ft | 440 kts | 188° |
| 2026-05-06 13:57 | 44.51592 | -3.96173 | 37016 ft | 440 kts | 188° |
| 2026-05-06 13:57 | 44.45510 | -3.97030 | 37019 ft | 439 kts | 188° |
| 2026-05-06 13:58 | 44.39424 | -3.97885 | 37019 ft | 440 kts | 188° |
| 2026-05-06 13:58 | 44.33376 | -3.98733 | 37019 ft | 440 kts | 188° |
| 2026-05-06 13:59 | 44.27270 | -3.99495 | 37024 ft | 441 kts | 187° |
| 2026-05-06 13:59 | 44.21154 | -4.00173 | 37029 ft | 441 kts | 187° |
| 2026-05-06 14:00 | 44.15028 | -4.00852 | 37018 ft | 442 kts | 187° |
| 2026-05-06 14:00 | 44.08938 | -4.01538 | 37031 ft | 442 kts | 187° |
| 2026-05-06 14:01 | 44.02804 | -4.02234 | 37030 ft | 443 kts | 187° |
| 2026-05-06 14:01 | 43.96661 | -4.02932 | 37025 ft | 443 kts | 187° |
| 2026-05-06 14:02 | 43.90518 | -4.03628 | 37025 ft | 442 kts | 187° |
| 2026-05-06 14:02 | 43.84400 | -4.04319 | 37028 ft | 440 kts | 187° |
| 2026-05-06 14:03 | 43.78333 | -4.05003 | 37031 ft | 441 kts | 187° |
| 2026-05-06 14:03 | 43.72218 | -4.05692 | 37035 ft | 441 kts | 188° |
| 2026-05-06 14:04 | 43.66091 | -4.06381 | 37038 ft | 442 kts | 188° |
| 2026-05-06 14:04 | 43.59969 | -4.07067 | 37026 ft | 440 kts | 188° |
| 2026-05-06 14:05 | 43.53914 | -4.07743 | 37030 ft | 439 kts | 188° |
| 2026-05-06 14:05 | 43.47803 | -4.08427 | 37051 ft | 441 kts | 188° |
| 2026-05-06 14:06 | 43.41678 | -4.09110 | 37054 ft | 442 kts | 188° |
| 2026-05-06 14:06 | 43.35531 | -4.09793 | 37038 ft | 443 kts | 188° |
| 2026-05-06 14:07 | 43.29422 | -4.10471 | 37044 ft | 444 kts | 188° |
| 2026-05-06 14:07 | 43.23263 | -4.11153 | 37052 ft | 444 kts | 188° |
| 2026-05-06 14:08 | 43.17110 | -4.11832 | 37030 ft | 443 kts | 188° |
| 2026-05-06 14:08 | 43.10968 | -4.12510 | 37024 ft | 442 kts | 188° |
| 2026-05-06 14:09 | 43.04889 | -4.13179 | 37023 ft | 441 kts | 188° |
| 2026-05-06 14:09 | 42.98783 | -4.13849 | 37020 ft | 439 kts | 188° |
| 2026-05-06 14:10 | 42.92696 | -4.14517 | 37000 ft | 438 kts | 188° |
| 2026-05-06 14:10 | 42.86626 | -4.15181 | 37008 ft | 437 kts | 188° |
| 2026-05-06 14:11 | 42.80609 | -4.15838 | 37006 ft | 436 kts | 188° |
| 2026-05-06 14:11 | 42.74562 | -4.16497 | 37000 ft | 436 kts | 188° |
| 2026-05-06 14:12 | 42.68514 | -4.17156 | 36991 ft | 436 kts | 188° |
| 2026-05-06 14:12 | 42.62469 | -4.17813 | 36990 ft | 436 kts | 188° |
| 2026-05-06 14:13 | 42.56465 | -4.18463 | 36978 ft | 436 kts | 188° |
| 2026-05-06 14:13 | 42.50419 | -4.19117 | 36975 ft | 436 kts | 188° |
| 2026-05-06 14:14 | 42.44366 | -4.19770 | 36979 ft | 436 kts | 188° |
| 2026-05-06 14:14 | 42.38317 | -4.20422 | 36978 ft | 437 kts | 188° |
| 2026-05-06 14:15 | 42.32257 | -4.21074 | 36963 ft | 437 kts | 188° |
| 2026-05-06 14:15 | 42.26241 | -4.21719 | 36975 ft | 437 kts | 188° |
| 2026-05-06 14:16 | 42.20182 | -4.22368 | 36980 ft | 437 kts | 188° |
| 2026-05-06 14:16 | 42.14109 | -4.23018 | 36971 ft | 438 kts | 188° |
| 2026-05-06 14:17 | 42.08044 | -4.23665 | 36968 ft | 437 kts | 188° |
| 2026-05-06 14:17 | 42.02017 | -4.24306 | 36978 ft | 437 kts | 188° |
| 2026-05-06 14:18 | 41.95960 | -4.24950 | 36978 ft | 437 kts | 188° |
| 2026-05-06 14:18 | 41.89905 | -4.25592 | 36962 ft | 436 kts | 188° |
| 2026-05-06 14:19 | 41.83866 | -4.26232 | 36973 ft | 435 kts | 188° |
| 2026-05-06 14:19 | 41.77881 | -4.26864 | 36971 ft | 434 kts | 188° |
| 2026-05-06 14:20 | 41.71866 | -4.27499 | 36971 ft | 433 kts | 188° |
| 2026-05-06 14:20 | 41.65863 | -4.28131 | 36967 ft | 432 kts | 188° |
| 2026-05-06 14:21 | 41.59870 | -4.28760 | 36970 ft | 431 kts | 188° |
| 2026-05-06 14:21 | 41.53928 | -4.29384 | 36974 ft | 431 kts | 188° |
| 2026-05-06 14:22 | 41.47952 | -4.30010 | 36960 ft | 431 kts | 188° |
| 2026-05-06 14:22 | 41.41982 | -4.30634 | 36971 ft | 430 kts | 188° |
| 2026-05-06 14:23 | 41.36014 | -4.31257 | 36970 ft | 430 kts | 188° |
| 2026-05-06 14:23 | 41.30092 | -4.31873 | 36972 ft | 430 kts | 188° |
| 2026-05-06 14:24 | 41.24129 | -4.32493 | 36960 ft | 430 kts | 188° |
| 2026-05-06 14:24 | 41.18168 | -4.33112 | 36971 ft | 429 kts | 188° |
| 2026-05-06 14:25 | 41.12211 | -4.33729 | 36971 ft | 430 kts | 188° |
| 2026-05-06 14:25 | 41.06286 | -4.34341 | 36971 ft | 430 kts | 188° |
| 2026-05-06 14:26 | 41.00327 | -4.34956 | 36961 ft | 429 kts | 188° |
| 2026-05-06 14:26 | 40.94375 | -4.35569 | 36968 ft | 429 kts | 188° |
| 2026-05-06 14:27 | 40.88430 | -4.36181 | 36959 ft | 429 kts | 188° |
| 2026-05-06 14:27 | 40.82517 | -4.36787 | 36951 ft | 429 kts | 188° |
| 2026-05-06 14:28 | 40.76567 | -4.37397 | 36960 ft | 429 kts | 189° |
| 2026-05-06 14:28 | 40.70621 | -4.38005 | 36950 ft | 428 kts | 189° |
| 2026-05-06 14:29 | 40.64693 | -4.38609 | 36952 ft | 426 kts | 188° |
| 2026-05-06 14:29 | 40.58785 | -4.39211 | 36950 ft | 425 kts | 189° |
| 2026-05-06 14:30 | 40.52927 | -4.39807 | 36953 ft | 424 kts | 189° |
| 2026-05-06 14:30 | 40.47041 | -4.40405 | 36951 ft | 424 kts | 189° |
| 2026-05-06 14:31 | 40.41149 | -4.41003 | 36949 ft | 425 kts | 189° |
| 2026-05-06 14:31 | 40.35258 | -4.41599 | 36934 ft | 425 kts | 189° |
| 2026-05-06 14:32 | 40.29404 | -4.42190 | 36939 ft | 425 kts | 189° |
| 2026-05-06 14:32 | 40.23512 | -4.42785 | 36927 ft | 424 kts | 189° |
| 2026-05-06 14:33 | 40.17626 | -4.43377 | 36933 ft | 424 kts | 189° |
| 2026-05-06 14:33 | 40.11792 | -4.43963 | 36927 ft | 423 kts | 189° |
| 2026-05-06 14:34 | 40.05932 | -4.44551 | 36929 ft | 423 kts | 189° |
| 2026-05-06 14:34 | 40.00065 | -4.45139 | 36935 ft | 423 kts | 189° |
| 2026-05-06 14:35 | 39.94235 | -4.45722 | 36904 ft | 423 kts | 189° |
| 2026-05-06 14:35 | 39.88344 | -4.46308 | 36928 ft | 420 kts | 189° |
| 2026-05-06 14:36 | 39.82561 | -4.46884 | 36927 ft | 420 kts | 189° |
| 2026-05-06 14:36 | 39.76727 | -4.47466 | 36932 ft | 421 kts | 189° |
| 2026-05-06 14:37 | 39.70880 | -4.48047 | 36919 ft | 422 kts | 189° |
| 2026-05-06 14:37 | 39.65025 | -4.48627 | 36924 ft | 422 kts | 189° |
| 2026-05-06 14:38 | 39.59216 | -4.49201 | 36924 ft | 420 kts | 189° |
| 2026-05-06 14:38 | 39.53422 | -4.49771 | 36928 ft | 416 kts | 189° |
| 2026-05-06 14:39 | 39.47673 | -4.50338 | 36909 ft | 413 kts | 189° |
| 2026-05-06 14:39 | 39.41958 | -4.50901 | 36907 ft | 411 kts | 189° |
| 2026-05-06 14:40 | 39.36295 | -4.51459 | 36915 ft | 411 kts | 189° |
| 2026-05-06 14:40 | 39.30579 | -4.52022 | 36920 ft | 413 kts | 189° |
| 2026-05-06 14:41 | 39.24841 | -4.52585 | 36906 ft | 414 kts | 190° |
| 2026-05-06 14:41 | 39.19068 | -4.53150 | 36915 ft | 418 kts | 190° |
| 2026-05-06 14:42 | 39.13248 | -4.53718 | 36916 ft | 420 kts | 189° |
| 2026-05-06 14:42 | 39.07455 | -4.54282 | 36924 ft | 421 kts | 189° |
| 2026-05-06 14:43 | 39.01613 | -4.54850 | 36895 ft | 420 kts | 190° |
| 2026-05-06 14:43 | 38.95800 | -4.55415 | 36915 ft | 418 kts | 190° |
| 2026-05-06 14:44 | 38.90138 | -4.56299 | 36911 ft | 408 kts | 195° |
| 2026-05-06 14:45 | 38.81766 | -4.58113 | 36914 ft | 406 kts | 195° |
| 2026-05-06 14:45 | 38.76192 | -4.59304 | 36912 ft | 406 kts | 195° |
| 2026-05-06 14:46 | 38.70614 | -4.60475 | 36905 ft | 406 kts | 195° |
| 2026-05-06 14:46 | 38.65070 | -4.61632 | 36910 ft | 407 kts | 195° |
| 2026-05-06 14:47 | 38.59469 | -4.62799 | 36730 ft | 410 kts | 195° |
| 2026-05-06 14:47 | 38.56667 | -4.63381 | 36476 ft | 404 kts | 194° |
| 2026-05-06 14:47 | 38.53904 | -4.63952 | 36087 ft | 399 kts | 195° |
| 2026-05-06 14:47 | 38.51187 | -4.64513 | 35737 ft | 394 kts | 195° |
| 2026-05-06 14:48 | 38.48495 | -4.65071 | 35359 ft | 390 kts | 195° |
| 2026-05-06 14:48 | 38.45833 | -4.65624 | 34984 ft | 386 kts | 195° |
| 2026-05-06 14:48 | 38.43235 | -4.66163 | 34625 ft | 382 kts | 195° |
| 2026-05-06 14:48 | 38.40623 | -4.66705 | 34268 ft | 378 kts | 195° |
| 2026-05-06 14:49 | 38.38039 | -4.67241 | 33902 ft | 374 kts | 195° |
| 2026-05-06 14:49 | 38.35482 | -4.67771 | 33484 ft | 371 kts | 195° |
| 2026-05-06 14:49 | 38.32947 | -4.68294 | 33123 ft | 367 kts | 195° |
| 2026-05-06 14:49 | 38.30443 | -4.68811 | 32764 ft | 363 kts | 195° |
| 2026-05-06 14:50 | 38.27967 | -4.69315 | 32501 ft | 357 kts | 195° |
| 2026-05-06 14:50 | 38.25539 | -4.69806 | 32225 ft | 350 kts | 195° |
| 2026-05-06 14:50 | 38.23143 | -4.70291 | 31966 ft | 349 kts | 195° |
| 2026-05-06 14:50 | 38.20761 | -4.70775 | 31702 ft | 345 kts | 195° |
| 2026-05-06 14:51 | 38.18433 | -4.71247 | 31364 ft | 342 kts | 195° |
| 2026-05-06 14:51 | 38.16089 | -4.71726 | 31020 ft | 340 kts | 195° |
| 2026-05-06 14:51 | 38.13760 | -4.72199 | 30701 ft | 338 kts | 195° |
| 2026-05-06 14:51 | 38.11439 | -4.72671 | 30358 ft | 337 kts | 195° |
| 2026-05-06 14:52 | 38.09127 | -4.73139 | 30022 ft | 335 kts | 195° |
| 2026-05-06 14:52 | 38.06833 | -4.73603 | 29630 ft | 333 kts | 195° |
| 2026-05-06 14:52 | 38.04556 | -4.74063 | 29322 ft | 329 kts | 195° |
| 2026-05-06 14:52 | 38.02300 | -4.74518 | 28929 ft | 327 kts | 195° |
| 2026-05-06 14:53 | 38.00098 | -4.74963 | 28587 ft | 324 kts | 195° |
| 2026-05-06 14:53 | 37.97880 | -4.75411 | 28254 ft | 322 kts | 195° |
| 2026-05-06 14:53 | 37.95673 | -4.75857 | 27881 ft | 320 kts | 195° |
| 2026-05-06 14:53 | 37.93475 | -4.76300 | 27527 ft | 319 kts | 195° |
| 2026-05-06 14:54 | 37.91294 | -4.76741 | 27202 ft | 317 kts | 195° |
| 2026-05-06 14:54 | 37.89117 | -4.77180 | 26859 ft | 317 kts | 195° |
| 2026-05-06 14:54 | 37.86940 | -4.77620 | 26523 ft | 316 kts | 194° |
| 2026-05-06 14:54 | 37.84759 | -4.78060 | 26178 ft | 319 kts | 194° |
| 2026-05-06 14:55 | 37.82569 | -4.78501 | 25850 ft | 319 kts | 194° |
| 2026-05-06 14:55 | 37.80365 | -4.78945 | 25245 ft | 326 kts | 194° |
| 2026-05-06 14:55 | 37.78111 | -4.79381 | 24596 ft | 337 kts | 191° |
| 2026-05-06 14:55 | 37.75749 | -4.79530 | 24174 ft | 341 kts | 186° |
| 2026-05-06 14:56 | 37.73382 | -4.79552 | 23878 ft | 339 kts | 185° |
| 2026-05-06 14:56 | 37.71031 | -4.79549 | 23566 ft | 338 kts | 185° |
| 2026-05-06 14:56 | 37.68682 | -4.79552 | 23181 ft | 337 kts | 185° |
| 2026-05-06 14:56 | 37.66339 | -4.79564 | 22819 ft | 336 kts | 185° |
| 2026-05-06 14:57 | 37.64011 | -4.79584 | 22488 ft | 333 kts | 185° |
| 2026-05-06 14:57 | 37.61698 | -4.79610 | 22136 ft | 331 kts | 185° |
| 2026-05-06 14:57 | 37.59396 | -4.79640 | 21775 ft | 330 kts | 185° |
| 2026-05-06 14:57 | 37.57131 | -4.79672 | 21444 ft | 329 kts | 185° |
| 2026-05-06 14:58 | 37.54853 | -4.79706 | 21123 ft | 327 kts | 185° |
| 2026-05-06 14:58 | 37.52583 | -4.79740 | 20794 ft | 325 kts | 185° |
| 2026-05-06 14:58 | 37.50323 | -4.79775 | 20484 ft | 324 kts | 185° |
| 2026-05-06 14:58 | 37.48072 | -4.79809 | 20168 ft | 323 kts | 185° |
| 2026-05-06 14:59 | 37.45835 | -4.79843 | 19860 ft | 321 kts | 185° |
| 2026-05-06 14:59 | 37.43603 | -4.79878 | 19552 ft | 320 kts | 184° |
| 2026-05-06 14:59 | 37.41383 | -4.79911 | 19249 ft | 319 kts | 184° |
| 2026-05-06 14:59 | 37.39169 | -4.79945 | 18948 ft | 317 kts | 184° |
| 2026-05-06 15:00 | 37.36969 | -4.79979 | 18661 ft | 315 kts | 184° |
| 2026-05-06 15:00 | 37.34817 | -4.80012 | 18402 ft | 313 kts | 184° |
| 2026-05-06 15:00 | 37.32646 | -4.80045 | 18083 ft | 312 kts | 184° |
| 2026-05-06 15:00 | 37.30479 | -4.80078 | 17741 ft | 311 kts | 184° |
| 2026-05-06 15:01 | 37.28323 | -4.80110 | 17473 ft | 307 kts | 184° |
| 2026-05-06 15:01 | 37.26238 | -4.80141 | 17306 ft | 293 kts | 183° |
| 2026-05-06 15:01 | 37.24224 | -4.80170 | 17050 ft | 286 kts | 184° |
| 2026-05-06 15:01 | 37.22276 | -4.80199 | 16920 ft | 276 kts | 184° |
| 2026-05-06 15:02 | 37.20353 | -4.80229 | 16358 ft | 278 kts | 184° |
| 2026-05-06 15:02 | 37.18414 | -4.80235 | 15838 ft | 279 kts | 182° |
| 2026-05-06 15:02 | 37.16474 | -4.80212 | 15403 ft | 278 kts | 182° |
| 2026-05-06 15:02 | 37.14585 | -4.80187 | 15088 ft | 271 kts | 181° |
| 2026-05-06 15:03 | 37.12721 | -4.80163 | 14712 ft | 266 kts | 181° |
| 2026-05-06 15:03 | 37.10870 | -4.80140 | 14215 ft | 266 kts | 181° |
| 2026-05-06 15:03 | 37.09019 | -4.80119 | 13741 ft | 266 kts | 181° |
| 2026-05-06 15:03 | 37.07178 | -4.80098 | 13282 ft | 263 kts | 181° |
| 2026-05-06 15:04 | 37.05353 | -4.80078 | 12784 ft | 262 kts | 181° |
| 2026-05-06 15:04 | 37.03540 | -4.80058 | 12324 ft | 259 kts | 181° |
| 2026-05-06 15:04 | 37.01738 | -4.80037 | 11858 ft | 258 kts | 181° |
| 2026-05-06 15:04 | 36.99954 | -4.80017 | 11383 ft | 257 kts | 181° |
| 2026-05-06 15:05 | 36.98173 | -4.79997 | 10967 ft | 254 kts | 181° |
| 2026-05-06 15:05 | 36.96437 | -4.79979 | 10623 ft | 250 kts | 181° |
| 2026-05-06 15:05 | 36.94707 | -4.79960 | 10235 ft | 248 kts | 181° |
| 2026-05-06 15:05 | 36.92985 | -4.79873 | 9881 ft | 246 kts | 173° |
| 2026-05-06 15:06 | 36.91306 | -4.79229 | 9107 ft | 258 kts | 161° |
| 2026-05-06 15:06 | 36.89612 | -4.78432 | 8331 ft | 261 kts | 162° |
| 2026-05-06 15:06 | 36.87899 | -4.77661 | 7582 ft | 263 kts | 162° |
| 2026-05-06 15:06 | 36.86306 | -4.76566 | 6826 ft | 265 kts | 137° |
| 2026-05-06 15:07 | 36.85102 | -4.74831 | 6111 ft | 264 kts | 128° |
| 2026-05-06 15:07 | 36.83950 | -4.73043 | 5347 ft | 264 kts | 129° |
| 2026-05-06 15:07 | 36.82756 | -4.71308 | 4609 ft | 264 kts | 131° |
| 2026-05-06 15:07 | 36.81556 | -4.69623 | 3896 ft | 262 kts | 131° |
| 2026-05-06 15:08 | 36.80365 | -4.67963 | 3490 ft | 251 kts | 131° |
| 2026-05-06 15:08 | 36.79223 | -4.66366 | 3149 ft | 243 kts | 132° |
| 2026-05-06 15:08 | 36.78119 | -4.64819 | 2822 ft | 233 kts | 132° |
| 2026-05-06 15:08 | 36.77090 | -4.63377 | 2531 ft | 213 kts | 132° |
| 2026-05-06 15:09 | 36.76145 | -4.62052 | 2263 ft | 196 kts | 132° |
| 2026-05-06 15:09 | 36.75255 | -4.60884 | 1988 ft | 179 kts | 137° |
| 2026-05-06 15:09 | 36.74310 | -4.59932 | 1674 ft | 168 kts | 143° |
| 2026-05-06 15:09 | 36.73486 | -4.59003 | 1404 ft | 154 kts | 129° |
| 2026-05-06 15:10 | 36.72910 | -4.57920 | 1220 ft | 146 kts | 118° |
| 2026-05-06 15:10 | 36.72328 | -4.56837 | 1013 ft | 153 kts | 131° |
| 2026-05-06 15:10 | 36.71667 | -4.55844 | 863 ft | 146 kts | 132° |
| 2026-05-06 15:10 | 36.71026 | -4.54886 | 684 ft | 144 kts | 128° |
| 2026-05-06 15:11 | 36.70452 | -4.53903 | 469 ft | 137 kts | 124° |
| 2026-05-06 15:11 | 36.69986 | -4.52902 | 382 ft | 137 kts | 117° |
| 2026-05-06 15:11 | 36.69533 | -4.51790 | 239 ft | 147 kts | 120° |
| 2026-05-06 15:11 | 36.69063 | -4.50667 | 63 ft | 143 kts | 122° |
| 2026-05-06 15:12 | 36.68643 | -4.49678 | 46 ft | 110 kts | 121° |
| 2026-05-06 15:12 | 36.68391 | -4.49093 | 43 ft | 44 kts | 123° |
| 2026-05-06 15:12 | 36.68217 | -4.48886 | 40 ft | 9 kts | 148° |
| 2026-05-06 15:12 | 36.68170 | -4.48851 | 38 ft | 0 kts | 162° |
| 2026-05-06 15:13 | 36.68170 | -4.48852 | 38 ft | 0 kts | 168° |
| 2026-05-06 15:13 | 36.68163 | -4.48857 | 38 ft | 3 kts | 211° |
| 2026-05-06 15:13 | 36.68148 | -4.48876 | 39 ft | 2 kts | 229° |
| 2026-05-06 15:13 | 36.68140 | -4.48891 | 39 ft | 3 kts | 245° |
| 2026-05-06 15:14 | 36.68143 | -4.48929 | 39 ft | 6 kts | 291° |
| 2026-05-06 15:14 | 36.68166 | -4.48988 | 39 ft | 8 kts | 297° |
| 2026-05-06 15:14 | 36.68194 | -4.49053 | 39 ft | 8 kts | 298° |
| 2026-05-06 15:14 | 36.68220 | -4.49116 | 39 ft | 8 kts | 297° |
| 2026-05-06 15:15 | 36.68246 | -4.49178 | 39 ft | 8 kts | 297° |
| 2026-05-06 15:15 | 36.68270 | -4.49236 | 39 ft | 8 kts | 297° |
| 2026-05-06 15:15 | 36.68282 | -4.49298 | 40 ft | 7 kts | 259° |
| 2026-05-06 15:15 | 36.68254 | -4.49348 | 39 ft | 7 kts | 223° |
| 2026-05-06 15:16 | 36.68217 | -4.49389 | 40 ft | 7 kts | 221° |
| 2026-05-06 15:16 | 36.68181 | -4.49428 | 41 ft | 7 kts | 222° |
| 2026-05-06 15:16 | 36.68143 | -4.49471 | 41 ft | 8 kts | 222° |
| 2026-05-06 15:16 | 36.68103 | -4.49515 | 41 ft | 8 kts | 221° |
| 2026-05-06 15:17 | 36.68050 | -4.49574 | 41 ft | 11 kts | 222° |
| 2026-05-06 15:17 | 36.68001 | -4.49628 | 41 ft | 5 kts | 221° |
| 2026-05-06 15:17 | 36.67998 | -4.49632 | 41 ft | 1 kts | 221° |
| 2026-05-06 15:17 | 36.67987 | -4.49643 | 41 ft | 3 kts | 220° |
| 2026-05-06 15:18 | 36.67970 | -4.49662 | 41 ft | 3 kts | 221° |
| 2026-05-06 15:18 | 36.67954 | -4.49680 | 41 ft | 3 kts | 221° |
| 2026-05-06 15:18 | 36.67938 | -4.49698 | 41 ft | 3 kts | 221° |
| 2026-05-06 15:18 | 36.67935 | -4.49701 | 41 ft | 0 kts | 222° |
| 2026-05-06 15:19 | 36.67931 | -4.49705 | 41 ft | 2 kts | 222° |
| 2026-05-06 15:19 | 36.67919 | -4.49719 | 41 ft | 2 kts | 222° |
| 2026-05-06 15:19 | 36.67907 | -4.49733 | 41 ft | 2 kts | 223° |
| 2026-05-06 15:19 | 36.67891 | -4.49750 | 41 ft | 4 kts | 222° |
| 2026-05-06 15:20 | 36.67864 | -4.49780 | 41 ft | 5 kts | 221° |
| 2026-05-06 15:20 | 36.67835 | -4.49813 | 41 ft | 6 kts | 222° |
| 2026-05-06 15:20 | 36.67803 | -4.49846 | 41 ft | 6 kts | 215° |
| 2026-05-06 15:20 | 36.67756 | -4.49843 | 41 ft | 8 kts | 142° |
| 2026-05-06 15:21 | 36.67717 | -4.49792 | 41 ft | 8 kts | 132° |
| 2026-05-06 15:21 | 36.67681 | -4.49740 | 41 ft | 8 kts | 131° |
| 2026-05-06 15:21 | 36.67657 | -4.49708 | 41 ft | 8 kts | 132° |
| 2026-05-06 15:21 | 36.67621 | -4.49659 | 41 ft | 8 kts | 139° |
| 2026-05-06 15:22 | 36.67572 | -4.49662 | 39 ft | 8 kts | 211° |
| 2026-05-06 15:22 | 36.67510 | -4.49641 | 42 ft | 9 kts | 133° |
| 2026-05-06 15:22 | 36.67464 | -4.49578 | 41 ft | 11 kts | 132° |
| 2026-05-06 15:22 | 36.67415 | -4.49508 | 42 ft | 11 kts | 131° |
| 2026-05-06 15:23 | 36.67379 | -4.49458 | 42 ft | 12 kts | 132° |
| 2026-05-06 15:23 | 36.67321 | -4.49377 | 41 ft | 14 kts | 131° |
| 2026-05-06 15:23 | 36.67255 | -4.49285 | 41 ft | 15 kts | 131° |
| 2026-05-06 15:23 | 36.67183 | -4.49184 | 41 ft | 15 kts | 132° |
| 2026-05-06 15:24 | 36.67146 | -4.49131 | 41 ft | 7 kts | 131° |
| 2026-05-06 15:24 | 36.67136 | -4.49069 | 41 ft | 8 kts | 62° |
| 2026-05-06 15:24 | 36.67166 | -4.49011 | 41 ft | 8 kts | 64° |
| 2026-05-06 15:24 | 36.67202 | -4.48954 | 41 ft | 8 kts | 43° |
| 2026-05-06 15:25 | 36.67217 | -4.48941 | 41 ft | 4 kts | 22° |
| 2026-05-06 15:25 | 36.67253 | -4.48953 | 39 ft | 5 kts | 333° |
| 2026-05-06 15:25 | 36.67281 | -4.48972 | 41 ft | 3 kts | 331° |
| 2026-05-06 15:25 | 36.67295 | -4.48981 | 41 ft | 1 kts | 331° |
| 2026-05-06 15:26 | 36.67295 | -4.48982 | 41 ft | 0 kts | 331° |